createdAt,value
2023-01-20T00:02:00.407Z,100061.56
2023-01-20T00:04:29.487Z,100059.56
2023-01-20T00:06:57.942Z,100059.25
2023-01-20T00:09:25.998Z,100061.19
2023-01-20T00:11:53.717Z,100064.00
2023-01-20T00:14:21.483Z,100065.50
2023-01-20T00:16:49.454Z,100069.78
2023-01-20T00:19:17.271Z,100067.97
2023-01-20T00:21:46.260Z,100069.13
2023-01-20T00:24:13.982Z,100066.47
2023-01-20T00:26:42.728Z,100064.66
2023-01-20T00:29:11.004Z,100070.13
2023-01-20T00:31:39.156Z,100074.56
2023-01-20T00:34:06.943Z,100070.13
2023-01-20T00:36:35.208Z,100078.03
2023-01-20T00:39:05.485Z,100085.25
2023-01-20T00:41:33.584Z,100079.66
2023-01-20T00:44:03.604Z,100082.31
2023-01-20T00:46:31.413Z,100081.84
2023-01-20T00:48:59.415Z,100079.34
2023-01-20T00:51:27.228Z,100079.03
2023-01-20T00:53:55.263Z,100086.59
2023-01-20T00:56:24.390Z,100081.47
2023-01-20T00:58:53.010Z,100081.00
2023-01-20T01:01:20.896Z,100083.13
2023-01-20T01:03:48.819Z,100094.03
2023-01-20T01:06:32.361Z,100091.22
2023-01-20T01:09:04.016Z,100100.59
2023-01-20T01:11:33.179Z,100103.41
2023-01-20T01:14:00.979Z,100104.56
2023-01-20T01:20:13.709Z,100115.94
2023-01-20T01:22:41.920Z,100115.94
2023-01-20T01:25:09.956Z,100121.56
2023-01-20T01:27:39.088Z,100124.34
2023-01-20T01:30:08.072Z,100122.53
2023-01-20T01:32:35.874Z,100131.09
2023-01-20T01:35:03.676Z,100124.19
2023-01-20T01:37:31.430Z,100133.91
2023-01-20T01:39:59.190Z,100138.03
2023-01-20T01:42:29.320Z,100136.38
2023-01-20T01:45:22.685Z,100147.44
2023-01-20T01:47:53.862Z,100147.25
2023-01-20T01:50:25.338Z,100139.34
2023-01-20T01:52:55.030Z,100144.28
2023-01-20T01:55:24.549Z,100140.84
2023-01-20T01:57:53.273Z,100137.72
2023-01-20T02:00:22.913Z,100145.63
2023-01-20T02:02:51.156Z,100139.34
2023-01-20T02:05:19.357Z,100146.28
2023-01-20T02:07:48.672Z,100148.28
2023-01-20T02:10:18.713Z,100137.53
2023-01-20T02:12:49.751Z,100144.31
2023-01-20T02:15:22.781Z,100148.28
2023-01-20T02:18:06.539Z,100150.09
2023-01-20T02:21:06.015Z,100149.25
2023-01-20T02:23:47.465Z,100149.44
2023-01-20T02:30:18.910Z,100156.66
2023-01-20T02:32:55.743Z,100148.94
2023-01-20T02:35:26.402Z,100147.28
2023-01-20T02:38:15.433Z,100155.34
2023-01-20T02:40:54.575Z,100160.31
2023-01-20T02:43:29.167Z,100155.16
2023-01-20T02:46:01.242Z,100158.81
2023-01-20T02:48:35.419Z,100162.13
2023-01-20T02:54:05.093Z,100178.25
2023-01-20T02:56:33.347Z,100172.66
2023-01-20T02:59:03.858Z,100177.09
2023-01-20T03:01:33.610Z,100181.22
2023-01-20T03:04:04.380Z,100172.66
2023-01-20T03:06:35.962Z,100178.25
2023-01-20T03:09:07.525Z,100182.38
2023-01-20T03:11:37.552Z,100185.19
2023-01-20T03:14:08.732Z,100179.59
2023-01-20T03:16:36.832Z,100189.97
2023-01-20T03:19:06.188Z,100192.44
2023-01-20T03:21:37.878Z,100193.44
2023-01-20T03:24:06.881Z,100202.34
2023-01-20T03:26:35.310Z,100201.50
2023-01-20T03:29:06.664Z,100208.28
2023-01-20T03:31:37.680Z,100212.25
2023-01-20T03:34:14.418Z,100208.97
2023-01-20T03:36:43.777Z,100211.41
2023-01-20T03:39:11.843Z,100213.53
2023-01-20T03:41:52.471Z,100216.03
2023-01-20T03:44:23.550Z,100218.03
2023-01-20T03:46:54.877Z,100222.47
2023-01-20T03:49:28.148Z,100220.97
2023-01-20T03:52:01.040Z,100232.38
2023-01-20T03:57:32.584Z,100231.69
2023-01-20T04:00:00.648Z,100239.78
2023-01-20T04:02:32.432Z,100245.88
2023-01-20T04:05:02.686Z,100244.75
2023-01-20T04:07:32.111Z,100246.56
2023-01-20T04:10:04.371Z,100249.53
2023-01-20T04:12:32.213Z,100251.34
2023-01-20T04:17:56.430Z,100243.59
2023-01-20T04:20:27.802Z,100251.66
2023-01-20T04:28:45.293Z,100243.91
2023-01-20T04:31:28.942Z,100249.66
2023-01-20T04:33:57.382Z,100259.44
2023-01-20T04:36:26.566Z,100248.88
2023-01-20T04:38:54.455Z,100259.91
2023-01-20T04:41:24.288Z,100258.94
2023-01-20T04:43:52.238Z,100262.88
2023-01-20T04:46:19.892Z,100264.34
2023-01-20T04:48:47.748Z,100267.34
2023-01-20T04:51:16.580Z,100260.41
2023-01-20T04:53:45.993Z,100255.13
2023-01-20T04:56:16.647Z,100269.28
2023-01-20T04:58:45.795Z,100273.75
2023-01-20T05:01:13.849Z,100274.91
2023-01-20T05:03:41.789Z,100284.47
2023-01-20T05:06:11.268Z,100284.16
2023-01-20T05:08:39.112Z,100287.94
2023-01-20T05:11:08.424Z,100280.53
2023-01-20T05:13:39.294Z,100285.81
2023-01-20T05:16:07.890Z,100292.41
2023-01-20T05:18:35.873Z,100298.00
2023-01-20T05:21:04.931Z,100293.22
2023-01-20T05:23:34.437Z,100292.88
2023-01-20T05:26:02.124Z,100298.66
2023-01-20T05:28:31.463Z,100297.34
2023-01-20T05:30:59.751Z,100299.16
2023-01-20T05:33:27.816Z,100296.38
2023-01-20T05:35:56.118Z,100293.88
2023-01-20T05:38:23.973Z,100305.44
2023-01-20T05:40:51.732Z,100303.59
2023-01-20T05:43:20.277Z,100303.59
2023-01-20T05:45:49.562Z,100313.47
2023-01-20T05:48:17.483Z,100318.28
2023-01-20T05:50:48.668Z,100319.75
2023-01-20T05:53:17.100Z,100320.41
2023-01-20T05:55:45.122Z,100326.34
2023-01-20T05:58:14.405Z,100332.25
2023-01-20T06:00:42.433Z,100335.59
2023-01-20T06:03:11.601Z,100333.63
2023-01-20T06:05:39.234Z,100338.88
2023-01-20T06:08:07.529Z,100344.16
2023-01-20T06:10:35.436Z,100343.16
2023-01-20T06:13:03.328Z,100345.31
2023-01-20T06:15:31.236Z,100341.84
2023-01-20T06:17:59.176Z,100342.31
2023-01-20T06:20:29.041Z,100343.16
2023-01-20T06:22:57.033Z,100343.31
2023-01-20T06:28:19.306Z,100345.16
2023-01-20T06:30:47.181Z,100349.75
2023-01-20T06:33:15.200Z,100343.50
2023-01-20T06:35:44.336Z,100352.09
2023-01-20T06:38:13.257Z,100352.56
2023-01-20T06:40:41.213Z,100345.63
2023-01-20T06:43:09.140Z,100349.75
2023-01-20T06:45:38.389Z,100343.16
2023-01-20T06:48:08.594Z,100356.34
2023-01-20T06:50:36.509Z,100358.50
2023-01-20T06:53:05.807Z,100363.91
2023-01-20T06:55:33.603Z,100368.06
2023-01-20T06:58:02.299Z,100365.91
2023-01-20T07:00:30.388Z,100374.47
2023-01-20T07:02:58.240Z,100373.34
2023-01-20T07:05:26.111Z,100377.81
2023-01-20T07:07:53.909Z,100386.38
2023-01-20T07:10:23.210Z,100381.09
2023-01-20T07:12:51.787Z,100385.03
2023-01-20T07:15:19.795Z,100387.34
2023-01-20T07:17:47.792Z,100391.97
2023-01-20T07:20:15.762Z,100394.44
2023-01-20T07:22:43.631Z,100397.25
2023-01-20T07:25:11.532Z,100405.16
2023-01-20T07:27:40.851Z,100411.41
2023-01-20T07:30:10.215Z,100405.78
2023-01-20T07:32:38.798Z,100411.88
2023-01-20T07:35:07.496Z,100417.03
2023-01-20T07:37:35.323Z,100418.00
2023-01-20T07:40:03.541Z,100418.34
2023-01-20T07:42:31.288Z,100419.84
2023-01-20T07:45:01.692Z,100432.22
2023-01-20T07:47:37.654Z,100430.56
2023-01-20T07:50:08.775Z,100439.47
2023-01-20T07:52:39.666Z,100437.50
2023-01-20T07:55:10.487Z,100448.69
2023-01-20T07:57:38.500Z,100451.03
2023-01-20T08:00:10.770Z,100448.41
2023-01-20T08:02:39.420Z,100452.06
2023-01-20T08:07:53.014Z,100448.44
2023-01-20T08:10:24.507Z,100453.72
2023-01-20T08:12:55.862Z,100449.41
2023-01-20T08:16:09.246Z,100461.03
2023-01-20T08:22:55.336Z,100470.97
2023-01-20T08:25:23.435Z,100473.13
2023-01-20T08:28:42.779Z,100471.63
2023-01-20T08:31:31.237Z,100473.97
2023-01-20T08:33:59.642Z,100484.03
2023-01-20T08:36:58.672Z,100482.22
2023-01-20T08:39:26.794Z,100484.91
2023-01-20T08:41:54.858Z,100485.59
2023-01-20T08:44:22.757Z,100494.84
2023-01-20T08:46:55.173Z,100496.88
2023-01-20T08:49:23.659Z,100500.66
2023-01-20T08:51:51.922Z,100506.44
2023-01-20T08:54:19.875Z,100502.47
2023-01-20T08:56:51.227Z,100502.94
2023-01-20T08:59:19.158Z,100507.75
2023-01-20T09:01:46.972Z,100509.28
2023-01-20T09:04:16.155Z,100512.41
2023-01-20T09:06:45.921Z,100518.38
2023-01-20T09:09:15.135Z,100515.84
2023-01-20T09:11:44.789Z,100516.69
2023-01-20T09:14:12.653Z,100526.00
2023-01-20T09:16:40.388Z,100525.19
2023-01-20T09:19:08.525Z,100524.03
2023-01-20T09:21:37.590Z,100524.34
2023-01-20T09:24:06.197Z,100530.28
2023-01-20T09:26:38.594Z,100527.94
2023-01-20T09:29:10.408Z,100536.94
2023-01-20T09:31:38.776Z,100531.66
2023-01-20T09:34:06.482Z,100533.91
2023-01-20T09:36:34.343Z,100538.69
2023-01-20T09:39:24.312Z,100542.84
2023-01-20T09:42:10.030Z,100540.34
2023-01-20T09:44:50.364Z,100541.22
2023-01-20T09:51:48.580Z,100544.22
2023-01-20T09:57:10.393Z,100552.84
2023-01-20T10:02:29.244Z,100562.69
2023-01-20T10:05:00.328Z,100559.91
2023-01-20T10:07:33.971Z,100563.69
2023-01-20T10:10:10.494Z,100569.47
2023-01-20T10:12:42.106Z,100574.69
2023-01-20T10:15:12.632Z,100574.41
2023-01-20T10:17:44.284Z,100573.22
2023-01-20T10:20:19.202Z,100588.75
2023-01-20T10:22:50.211Z,100582.31
2023-01-20T10:25:22.570Z,100576.22
2023-01-20T10:27:54.110Z,100583.88
2023-01-20T10:30:25.272Z,100580.25
2023-01-20T10:32:56.327Z,100586.56
2023-01-20T10:35:27.176Z,100584.50
2023-01-20T10:37:55.781Z,100578.28
2023-01-20T10:40:35.327Z,100581.59
2023-01-20T10:43:11.567Z,100584.88
2023-01-20T10:45:48.506Z,100579.06
2023-01-20T10:48:27.357Z,100584.25
2023-01-20T10:50:57.575Z,100580.28
2023-01-20T10:53:44.125Z,100582.75
2023-01-20T10:56:24.925Z,100585.25
2023-01-20T10:58:53.300Z,100582.63
2023-01-20T11:01:21.701Z,100592.88
2023-01-20T11:03:50.172Z,100593.00
2023-01-20T11:06:20.666Z,100592.88
2023-01-20T11:08:48.868Z,100592.19
2023-01-20T11:11:20.771Z,100601.13
2023-01-20T11:13:48.876Z,100598.63
2023-01-20T11:16:19.066Z,100605.75
2023-01-20T11:18:57.519Z,100598.00
2023-01-20T11:21:26.404Z,100597.16
2023-01-20T11:23:56.878Z,100602.44
2023-01-20T11:26:28.413Z,100606.56
2023-01-20T11:28:58.181Z,100607.88
2023-01-20T11:31:37.176Z,100611.69
2023-01-20T11:34:21.012Z,100609.88
2023-01-20T11:36:48.636Z,100607.72
2023-01-20T11:39:26.583Z,100617.34
2023-01-20T11:42:11.988Z,100620.00
2023-01-20T11:44:43.171Z,100608.94
2023-01-20T11:47:24.606Z,100621.03
2023-01-20T11:50:26.029Z,100614.22
2023-01-20T11:52:53.500Z,100620.69
2023-01-20T11:55:23.386Z,100619.06
2023-01-20T11:57:56.975Z,100616.06
2023-01-20T12:00:39.032Z,100620.69
2023-01-20T12:03:28.841Z,100618.06
2023-01-20T12:06:00.954Z,100619.88
2023-01-20T12:08:31.584Z,100628.16
2023-01-20T12:11:03.746Z,100620.72
2023-01-20T12:13:57.481Z,100628.81
2023-01-20T12:16:27.023Z,100625.03
2023-01-20T12:19:02.213Z,100632.63
2023-01-20T12:21:35.210Z,100628.63
2023-01-20T12:24:07.868Z,100635.41
2023-01-20T12:26:35.974Z,100633.94
2023-01-20T12:29:08.995Z,100641.56
2023-01-20T12:31:36.910Z,100641.88
2023-01-20T12:34:06.128Z,100631.28
2023-01-20T12:37:00.284Z,100637.28
2023-01-20T12:39:44.951Z,100641.22
2023-01-20T12:42:29.141Z,100644.22
2023-01-20T12:44:59.905Z,100643.19
2023-01-20T12:47:40.181Z,100637.09
2023-01-20T12:50:19.747Z,100642.56
2023-01-20T12:52:58.520Z,100645.22
2023-01-20T12:55:46.987Z,100661.75
2023-01-20T12:58:22.028Z,100656.28
2023-01-20T13:01:18.194Z,100661.44
2023-01-20T13:04:12.882Z,100653.00
2023-01-20T13:06:50.713Z,100656.63
2023-01-20T13:09:35.926Z,100671.69
2023-01-20T13:12:11.794Z,100691.72
2023-01-20T13:14:43.215Z,100681.59
2023-01-20T13:17:20.764Z,100677.97
2023-01-20T13:19:49.437Z,100696.84
2023-01-20T13:22:19.226Z,100697.00
2023-01-20T13:24:49.153Z,100694.19
2023-01-20T13:27:21.811Z,100683.91
2023-01-20T13:29:57.776Z,100681.25
2023-01-20T13:32:32.319Z,100678.97
2023-01-20T13:35:01.599Z,100678.94
2023-01-20T13:37:35.701Z,100683.25
2023-01-20T13:40:03.665Z,100693.53
2023-01-20T13:42:49.596Z,100695.19
2023-01-20T13:45:25.722Z,100693.19
2023-01-20T13:47:58.674Z,100705.63
2023-01-20T13:50:29.688Z,100703.47
2023-01-20T13:53:15.005Z,100709.72
2023-01-20T13:56:08.042Z,100720.66
2023-01-20T13:58:36.210Z,100720.66
2023-01-20T14:01:05.595Z,100720.03
2023-01-20T14:03:36.424Z,100723.63
2023-01-20T14:06:06.758Z,100733.53
2023-01-20T14:08:39.895Z,100737.84
2023-01-20T14:11:12.448Z,100738.50
2023-01-20T14:13:40.691Z,100741.59
2023-01-20T14:16:19.536Z,100747.41
2023-01-20T14:18:49.055Z,100750.69
2023-01-20T14:21:20.924Z,100745.41
2023-01-20T14:23:48.782Z,100749.72
2023-01-20T14:26:22.460Z,100755.00
2023-01-20T14:28:51.921Z,100746.41
2023-01-20T14:31:37.478Z,100748.25
2023-01-20T14:34:24.229Z,100748.22
2023-01-20T14:36:52.242Z,100756.00
2023-01-20T14:39:21.727Z,100750.56
2023-01-20T14:41:51.641Z,100762.94
2023-01-20T14:44:21.425Z,100756.81
2023-01-20T14:46:54.088Z,100767.25
2023-01-20T14:49:32.816Z,100771.50
2023-01-20T14:52:01.316Z,100772.88
2023-01-20T14:54:38.748Z,100769.91
2023-01-20T14:57:19.049Z,100771.72
2023-01-20T14:59:46.872Z,100779.81
2023-01-20T15:02:19.937Z,100782.44
2023-01-20T15:04:49.062Z,100787.38
2023-01-20T15:07:19.398Z,100810.53
2023-01-20T15:09:52.811Z,100814.50
2023-01-20T15:12:40.478Z,100822.94
2023-01-20T15:15:14.603Z,100822.75
2023-01-20T15:18:15.776Z,100822.22
2023-01-20T15:20:46.499Z,100833.28
2023-01-20T15:23:20.499Z,100837.09
2023-01-20T15:25:48.245Z,100836.19
2023-01-20T15:28:22.958Z,100838.84
2023-01-20T15:30:50.657Z,100852.66
2023-01-20T15:33:18.191Z,100849.47
2023-01-20T15:35:47.106Z,100844.41
2023-01-20T15:38:14.868Z,100857.78
2023-01-20T15:40:42.433Z,100868.16
2023-01-20T15:43:15.500Z,100871.63
2023-01-20T15:45:43.245Z,100879.56
2023-01-20T15:48:18.631Z,100889.97
2023-01-20T15:50:48.088Z,100902.16
2023-01-20T15:53:16.495Z,100904.59
2023-01-20T15:55:49.269Z,100908.97
2023-01-20T15:58:22.772Z,100901.72
2023-01-20T16:00:50.861Z,100904.44
2023-01-20T16:03:18.711Z,100909.34
2023-01-20T16:05:48.896Z,100920.59
2023-01-20T16:08:17.255Z,100923.03
2023-01-20T16:10:45.374Z,100931.75
2023-01-20T16:13:12.976Z,100931.47
2023-01-20T16:15:42.874Z,100936.28
2023-01-20T16:18:13.465Z,100934.66
2023-01-20T16:20:41.905Z,100935.66
2023-01-20T16:23:10.867Z,100938.44
2023-01-20T16:25:38.489Z,100941.25
2023-01-20T16:28:13.209Z,100935.84
2023-01-20T16:30:41.306Z,100940.22
2023-01-20T16:33:16.830Z,100949.94
2023-01-20T16:35:44.759Z,100950.44
2023-01-20T16:38:16.546Z,100960.31
2023-01-20T16:40:47.694Z,100963.06
2023-01-20T16:43:15.220Z,100965.47
2023-01-20T16:45:43.295Z,100968.94
2023-01-20T16:48:10.941Z,100979.25
2023-01-20T16:50:38.613Z,100976.47
2023-01-20T16:53:06.206Z,100979.59
2023-01-20T16:55:37.503Z,100983.91
2023-01-20T16:58:06.828Z,100990.38
2023-01-20T17:00:34.818Z,100990.59
2023-01-20T17:03:03.388Z,100995.44
2023-01-20T17:05:30.985Z,101003.50
2023-01-20T17:08:02.105Z,101004.19
2023-01-20T17:11:05.564Z,101009.03
2023-01-20T17:13:33.327Z,101015.38
2023-01-20T17:16:01.029Z,101020.09
2023-01-20T17:18:30.445Z,101029.78
2023-01-20T17:20:58.310Z,101025.28
2023-01-20T17:23:26.257Z,101025.44
2023-01-20T17:25:55.152Z,101036.84
2023-01-20T17:28:25.960Z,101040.78
2023-01-20T17:30:53.671Z,101041.47
2023-01-20T17:33:24.648Z,101044.31
2023-01-20T17:35:56.414Z,101045.00
2023-01-20T17:38:24.496Z,101045.59
2023-01-20T17:40:52.267Z,101048.56
2023-01-20T17:43:21.216Z,101051.38
2023-01-20T17:45:48.954Z,101052.00
2023-01-20T17:48:16.640Z,101057.53
2023-01-20T17:50:44.356Z,101054.06
2023-01-20T17:53:12.816Z,101066.97
2023-01-20T17:55:40.497Z,101066.38
2023-01-20T17:58:08.463Z,101065.03
2023-01-20T18:00:37.354Z,101072.19
2023-01-20T18:03:05.067Z,101078.13
2023-01-20T18:05:35.131Z,101089.16
2023-01-20T18:08:03.002Z,101093.19
2023-01-20T18:10:30.725Z,101098.97
2023-01-20T18:12:58.768Z,101104.13
2023-01-20T18:15:26.395Z,101111.78
2023-01-20T18:17:55.448Z,101113.78
2023-01-20T18:20:23.917Z,101119.41
2023-01-20T18:22:51.834Z,101128.97
2023-01-20T18:25:19.637Z,101126.59
2023-01-20T18:27:47.295Z,101140.56
2023-01-20T18:30:15.950Z,101138.16
2023-01-20T18:32:43.748Z,101150.06
2023-01-20T18:35:12.998Z,101143.16
2023-01-20T18:37:40.676Z,101147.94
2023-01-20T18:40:10.925Z,101146.88
2023-01-20T18:42:38.747Z,101151.03
2023-01-20T18:45:08.933Z,101154.59
2023-01-20T18:47:36.759Z,101159.88
2023-01-20T18:50:05.018Z,101161.31
2023-01-20T18:52:34.209Z,101159.16
2023-01-20T18:55:02.122Z,101167.03
2023-01-20T18:57:29.987Z,101169.41
2023-01-20T18:59:57.972Z,101184.81
2023-01-20T19:02:26.986Z,101184.19
2023-01-20T19:04:54.868Z,101181.56
2023-01-20T19:07:22.733Z,101186.13
2023-01-20T19:09:52.084Z,101188.50
2023-01-20T19:12:19.894Z,101194.34
2023-01-20T19:14:47.681Z,101197.09
2023-01-20T19:17:15.650Z,101204.72
2023-01-20T19:19:47.889Z,101209.16
2023-01-20T19:22:15.761Z,101210.47
2023-01-20T19:24:43.632Z,101209.03
2023-01-20T19:27:12.815Z,101215.34
2023-01-20T19:29:41.495Z,101220.88
2023-01-20T19:32:09.390Z,101222.19
2023-01-20T19:34:37.475Z,101233.16
2023-01-20T19:37:05.277Z,101231.50
2023-01-20T19:39:33.115Z,101236.25
2023-01-20T19:42:00.878Z,101238.66
2023-01-20T19:44:30.451Z,101236.97
2023-01-20T19:47:03.996Z,101244.84
2023-01-20T19:49:31.830Z,101248.53
2023-01-20T19:52:00.778Z,101248.97
2023-01-20T19:54:31.039Z,101258.84
2023-01-20T19:56:58.807Z,101256.38
2023-01-20T19:59:26.831Z,101255.03
2023-01-20T20:01:56.343Z,101258.72
2023-01-20T20:04:25.489Z,101263.16
2023-01-20T20:06:53.280Z,101269.13
2023-01-20T20:09:23.579Z,101267.25
2023-01-20T20:11:51.755Z,101273.50
2023-01-20T20:14:20.814Z,101279.72
2023-01-20T20:16:49.213Z,101281.25
2023-01-20T20:19:20.229Z,101282.06
2023-01-20T20:21:48.204Z,101290.91
2023-01-20T20:24:17.792Z,101292.59
2023-01-20T20:26:46.784Z,101288.56
2023-01-20T20:29:16.109Z,101297.84
2023-01-20T20:31:44.108Z,101301.66
2023-01-20T20:34:14.436Z,101314.78
2023-01-20T20:36:43.847Z,101312.50
2023-01-20T20:39:14.359Z,101318.44
2023-01-20T20:41:42.370Z,101315.16
2023-01-20T20:44:10.744Z,101319.66
2023-01-20T20:46:38.851Z,101322.91
2023-01-20T20:49:06.916Z,101321.09
2023-01-20T20:51:35.445Z,101331.75
2023-01-20T20:54:04.991Z,101336.06
2023-01-20T20:56:33.267Z,101335.13
2023-01-20T20:59:03.432Z,101341.06
2023-01-20T21:01:32.727Z,101344.84
2023-01-20T21:04:00.981Z,101347.72
2023-01-20T21:06:29.431Z,101348.13
2023-01-20T21:08:58.566Z,101352.06
2023-01-20T21:11:28.461Z,101351.25
2023-01-20T21:13:56.930Z,101356.94
2023-01-20T21:16:26.220Z,101366.19
2023-01-20T21:19:00.132Z,101368.84
2023-01-20T21:24:21.165Z,101367.38
2023-01-20T21:26:58.110Z,101378.78
2023-01-20T21:29:27.568Z,101385.38
2023-01-20T21:31:55.889Z,101376.88
2023-01-20T21:34:25.601Z,101385.25
2023-01-20T21:36:53.886Z,101385.34
2023-01-20T21:39:21.875Z,101400.19
2023-01-20T21:41:51.250Z,101401.75
2023-01-20T21:44:29.657Z,101399.84
2023-01-20T21:46:58.198Z,101398.00
2023-01-20T21:49:46.289Z,101407.41
2023-01-20T21:52:33.458Z,101406.63
2023-01-20T21:55:01.631Z,101412.53
2023-01-20T21:57:32.731Z,101422.06
2023-01-20T22:00:01.279Z,101416.31
2023-01-20T22:02:30.039Z,101429.13
2023-01-20T22:05:00.302Z,101428.84
2023-01-20T22:07:30.445Z,101425.41
2023-01-20T22:09:58.451Z,101439.88
2023-01-20T22:12:26.443Z,101434.13
2023-01-20T22:14:56.074Z,101439.97
2023-01-20T22:17:24.450Z,101442.81
2023-01-20T22:19:52.403Z,101449.09
2023-01-20T22:22:21.325Z,101441.97
2023-01-20T22:24:49.324Z,101449.56
2023-01-20T22:27:17.600Z,101459.97
2023-01-20T22:29:45.695Z,101458.63
2023-01-20T22:32:15.234Z,101466.59
2023-01-20T22:34:43.385Z,101465.53
2023-01-20T22:37:11.360Z,101467.56
2023-01-20T22:39:39.438Z,101471.78
2023-01-20T22:42:08.168Z,101471.84
2023-01-20T22:44:35.912Z,101472.59
2023-01-20T22:47:05.815Z,101481.91
2023-01-20T22:49:35.110Z,101482.19
2023-01-20T22:52:03.081Z,101493.50
2023-01-20T22:54:31.015Z,101491.31
2023-01-20T22:56:59.039Z,101500.91
2023-01-20T22:59:27.207Z,101502.34
2023-01-20T23:01:55.207Z,101501.53
2023-01-20T23:04:24.712Z,101506.56
2023-01-20T23:06:54.156Z,101508.97
2023-01-20T23:09:22.354Z,101515.66
2023-01-20T23:11:51.028Z,101512.66
2023-01-20T23:14:38.935Z,101513.75
2023-01-20T23:17:09.917Z,101512.88
2023-01-20T23:19:37.888Z,101514.81
2023-01-20T23:22:07.036Z,101517.56
2023-01-20T23:24:35.035Z,101532.22
2023-01-20T23:27:03.180Z,101535.41
2023-01-20T23:29:31.103Z,101538.72
2023-01-20T23:32:02.612Z,101537.50
2023-01-20T23:34:30.849Z,101537.34
2023-01-20T23:37:00.963Z,101546.19
2023-01-20T23:39:30.421Z,101545.78
2023-01-20T23:42:01.521Z,101548.16
2023-01-20T23:44:29.785Z,101546.94
2023-01-20T23:46:57.722Z,101547.97
2023-01-20T23:49:27.450Z,101552.19
2023-01-20T23:51:55.606Z,101559.97
2023-01-20T23:54:23.681Z,101556.53
2023-01-20T23:56:53.035Z,101558.22
2023-01-20T23:59:21.086Z,101568.66
